sensor_id;sensor_type;location;lat;lon;timestamp;P1;durP1;ratioP1;P2;durP2;ratioP2
2762;SDS011;1389;51.490;7.338;2022-07-09T00:00:54;99.40;;;11.80;;
2762;SDS011;1389;51.490;7.338;2022-07-09T00:03:20;98.53;;;11.70;;
2762;SDS011;1389;51.490;7.338;2022-07-09T00:05:46;98.00;;;11.40;;
2762;SDS011;1389;51.490;7.338;2022-07-09T00:08:12;96.03;;;10.80;;
2762;SDS011;1389;51.490;7.338;2022-07-09T00:10:38;97.10;;;11.55;;
2762;SDS011;1389;51.490;7.338;2022-07-09T00:13:04;97.22;;;11.80;;
2762;SDS011;1389;51.490;7.338;2022-07-09T00:15:31;97.30;;;11.20;;
2762;SDS011;1389;51.490;7.338;2022-07-09T00:17:57;98.90;;;11.73;;
2762;SDS011;1389;51.490;7.338;2022-07-09T00:20:23;99.35;;;12.35;;
2762;SDS011;1389;51.490;7.338;2022-07-09T00:22:49;96.45;;;11.90;;
2762;SDS011;1389;51.490;7.338;2022-07-09T00:25:15;97.75;;;11.98;;
2762;SDS011;1389;51.490;7.338;2022-07-09T00:27:42;101.13;;;12.32;;
2762;SDS011;1389;51.490;7.338;2022-07-09T00:30:08;97.75;;;12.15;;
2762;SDS011;1389;51.490;7.338;2022-07-09T00:32:34;96.28;;;11.90;;
2762;SDS011;1389;51.490;7.338;2022-07-09T00:35:00;95.07;;;11.68;;
2762;SDS011;1389;51.490;7.338;2022-07-09T00:37:26;96.53;;;12.10;;
2762;SDS011;1389;51.490;7.338;2022-07-09T00:39:52;96.30;;;12.30;;
2762;SDS011;1389;51.490;7.338;2022-07-09T00:42:18;95.43;;;12.20;;
2762;SDS011;1389;51.490;7.338;2022-07-09T00:44:45;97.03;;;11.80;;
2762;SDS011;1389;51.490;7.338;2022-07-09T00:47:12;99.75;;;12.40;;
2762;SDS011;1389;51.490;7.338;2022-07-09T00:49:39;100.80;;;12.20;;
2762;SDS011;1389;51.490;7.338;2022-07-09T00:52:11;95.85;;;12.20;;
2762;SDS011;1389;51.490;7.338;2022-07-09T00:54:39;97.22;;;12.50;;
2762;SDS011;1389;51.490;7.338;2022-07-09T00:57:08;98.65;;;11.93;;
2762;SDS011;1389;51.490;7.338;2022-07-09T00:59:35;98.07;;;12.50;;
2762;SDS011;1389;51.490;7.338;2022-07-09T01:02:03;97.80;;;12.50;;
2762;SDS011;1389;51.490;7.338;2022-07-09T01:04:32;95.82;;;12.40;;
2762;SDS011;1389;51.490;7.338;2022-07-09T01:06:58;96.25;;;12.43;;
2762;SDS011;1389;51.490;7.338;2022-07-09T01:09:25;97.35;;;12.40;;
2762;SDS011;1389;51.490;7.338;2022-07-09T01:11:52;99.27;;;12.67;;
2762;SDS011;1389;51.490;7.338;2022-07-09T01:14:19;98.40;;;12.67;;
2762;SDS011;1389;51.490;7.338;2022-07-09T01:16:45;96.10;;;12.40;;
2762;SDS011;1389;51.490;7.338;2022-07-09T01:19:11;95.20;;;12.25;;
2762;SDS011;1389;51.490;7.338;2022-07-09T01:21:37;96.10;;;12.30;;
2762;SDS011;1389;51.490;7.338;2022-07-09T01:24:03;96.32;;;12.30;;
2762;SDS011;1389;51.490;7.338;2022-07-09T01:26:30;100.68;;;12.77;;
2762;SDS011;1389;51.490;7.338;2022-07-09T01:28:56;95.50;;;12.50;;
2762;SDS011;1389;51.490;7.338;2022-07-09T01:31:22;97.30;;;12.60;;
2762;SDS011;1389;51.490;7.338;2022-07-09T01:33:48;95.95;;;12.50;;
2762;SDS011;1389;51.490;7.338;2022-07-09T01:36:14;96.82;;;12.90;;
2762;SDS011;1389;51.490;7.338;2022-07-09T01:38:40;96.30;;;12.90;;
2762;SDS011;1389;51.490;7.338;2022-07-09T01:41:06;98.32;;;13.20;;
2762;SDS011;1389;51.490;7.338;2022-07-09T01:43:32;98.50;;;12.88;;
2762;SDS011;1389;51.490;7.338;2022-07-09T01:45:59;96.40;;;12.55;;
2762;SDS011;1389;51.490;7.338;2022-07-09T01:48:26;96.32;;;12.60;;
2762;SDS011;1389;51.490;7.338;2022-07-09T01:50:55;95.45;;;12.73;;
2762;SDS011;1389;51.490;7.338;2022-07-09T01:53:21;97.80;;;12.90;;
2762;SDS011;1389;51.490;7.338;2022-07-09T01:55:47;98.30;;;13.40;;
2762;SDS011;1389;51.490;7.338;2022-07-09T01:58:13;97.82;;;13.38;;
2762;SDS011;1389;51.490;7.338;2022-07-09T02:00:40;99.50;;;13.60;;
2762;SDS011;1389;51.490;7.338;2022-07-09T02:03:06;97.25;;;13.13;;
2762;SDS011;1389;51.490;7.338;2022-07-09T02:05:32;97.00;;;13.70;;
2762;SDS011;1389;51.490;7.338;2022-07-09T02:07:58;96.50;;;13.10;;
2762;SDS011;1389;51.490;7.338;2022-07-09T02:10:24;98.70;;;13.40;;
2762;SDS011;1389;51.490;7.338;2022-07-09T02:12:50;101.20;;;13.43;;
2762;SDS011;1389;51.490;7.338;2022-07-09T02:15:16;96.80;;;13.40;;
2762;SDS011;1389;51.490;7.338;2022-07-09T02:17:42;101.50;;;13.88;;
2762;SDS011;1389;51.490;7.338;2022-07-09T02:20:09;97.80;;;13.50;;
2762;SDS011;1389;51.490;7.338;2022-07-09T02:22:35;95.53;;;12.70;;
2762;SDS011;1389;51.490;7.338;2022-07-09T02:25:01;97.05;;;13.20;;
2762;SDS011;1389;51.490;7.338;2022-07-09T02:27:27;97.50;;;13.50;;
2762;SDS011;1389;51.490;7.338;2022-07-09T02:29:53;99.22;;;13.70;;
2762;SDS011;1389;51.490;7.338;2022-07-09T02:32:19;98.47;;;13.80;;
2762;SDS011;1389;51.490;7.338;2022-07-09T02:34:45;99.25;;;13.73;;
2762;SDS011;1389;51.490;7.338;2022-07-09T02:37:11;98.50;;;12.73;;
2762;SDS011;1389;51.490;7.338;2022-07-09T02:39:37;98.18;;;12.80;;
2762;SDS011;1389;51.490;7.338;2022-07-09T02:42:03;99.15;;;14.00;;
2762;SDS011;1389;51.490;7.338;2022-07-09T02:44:30;97.68;;;13.43;;
2762;SDS011;1389;51.490;7.338;2022-07-09T02:46:56;98.20;;;14.40;;
2762;SDS011;1389;51.490;7.338;2022-07-09T02:49:22;98.47;;;14.27;;
2762;SDS011;1389;51.490;7.338;2022-07-09T02:51:48;97.75;;;13.90;;
2762;SDS011;1389;51.490;7.338;2022-07-09T02:54:15;96.68;;;12.65;;
2762;SDS011;1389;51.490;7.338;2022-07-09T02:56:41;99.18;;;14.23;;
2762;SDS011;1389;51.490;7.338;2022-07-09T02:59:07;97.72;;;13.63;;
2762;SDS011;1389;51.490;7.338;2022-07-09T03:01:33;99.20;;;13.90;;
2762;SDS011;1389;51.490;7.338;2022-07-09T03:03:59;98.28;;;13.23;;
2762;SDS011;1389;51.490;7.338;2022-07-09T03:06:25;97.53;;;13.43;;
2762;SDS011;1389;51.490;7.338;2022-07-09T03:08:51;98.25;;;13.95;;
2762;SDS011;1389;51.490;7.338;2022-07-09T03:11:17;96.63;;;13.55;;
2762;SDS011;1389;51.490;7.338;2022-07-09T03:13:43;98.75;;;14.18;;
2762;SDS011;1389;51.490;7.338;2022-07-09T03:16:09;96.45;;;12.68;;
2762;SDS011;1389;51.490;7.338;2022-07-09T03:18:35;99.23;;;13.90;;
2762;SDS011;1389;51.490;7.338;2022-07-09T03:21:03;97.45;;;13.80;;
2762;SDS011;1389;51.490;7.338;2022-07-09T03:23:29;97.10;;;14.02;;
2762;SDS011;1389;51.490;7.338;2022-07-09T03:25:55;98.65;;;13.93;;
2762;SDS011;1389;51.490;7.338;2022-07-09T03:28:21;98.40;;;14.50;;
2762;SDS011;1389;51.490;7.338;2022-07-09T03:30:47;96.32;;;13.02;;
2762;SDS011;1389;51.490;7.338;2022-07-09T03:33:13;99.03;;;14.53;;
2762;SDS011;1389;51.490;7.338;2022-07-09T03:35:39;98.18;;;14.50;;
2762;SDS011;1389;51.490;7.338;2022-07-09T03:38:05;98.50;;;14.18;;
2762;SDS011;1389;51.490;7.338;2022-07-09T03:40:31;97.40;;;14.35;;
2762;SDS011;1389;51.490;7.338;2022-07-09T03:42:57;100.80;;;14.70;;
2762;SDS011;1389;51.490;7.338;2022-07-09T03:45:23;97.90;;;14.30;;
2762;SDS011;1389;51.490;7.338;2022-07-09T03:47:50;100.97;;;14.48;;
2762;SDS011;1389;51.490;7.338;2022-07-09T03:50:16;104.78;;;14.98;;
2762;SDS011;1389;51.490;7.338;2022-07-09T03:52:42;101.68;;;15.20;;
2762;SDS011;1389;51.490;7.338;2022-07-09T03:55:08;99.97;;;14.60;;
2762;SDS011;1389;51.490;7.338;2022-07-09T03:57:34;98.00;;;14.80;;
2762;SDS011;1389;51.490;7.338;2022-07-09T04:00:00;99.53;;;15.10;;
2762;SDS011;1389;51.490;7.338;2022-07-09T04:02:26;99.50;;;14.93;;
2762;SDS011;1389;51.490;7.338;2022-07-09T04:04:53;97.40;;;14.15;;
2762;SDS011;1389;51.490;7.338;2022-07-09T04:07:22;100.55;;;15.40;;
2762;SDS011;1389;51.490;7.338;2022-07-09T04:09:48;101.38;;;14.95;;
2762;SDS011;1389;51.490;7.338;2022-07-09T04:12:14;98.57;;;14.93;;
2762;SDS011;1389;51.490;7.338;2022-07-09T04:14:40;102.75;;;15.70;;
2762;SDS011;1389;51.490;7.338;2022-07-09T04:17:06;99.20;;;14.93;;
2762;SDS011;1389;51.490;7.338;2022-07-09T04:19:32;101.15;;;14.70;;
2762;SDS011;1389;51.490;7.338;2022-07-09T04:21:58;98.30;;;14.52;;
2762;SDS011;1389;51.490;7.338;2022-07-09T04:24:24;101.53;;;15.80;;
2762;SDS011;1389;51.490;7.338;2022-07-09T04:26:50;97.40;;;14.70;;
2762;SDS011;1389;51.490;7.338;2022-07-09T04:29:16;99.80;;;14.80;;
2762;SDS011;1389;51.490;7.338;2022-07-09T04:31:42;100.22;;;14.90;;
2762;SDS011;1389;51.490;7.338;2022-07-09T04:34:08;101.53;;;15.80;;
2762;SDS011;1389;51.490;7.338;2022-07-09T04:36:34;99.90;;;15.80;;
2762;SDS011;1389;51.490;7.338;2022-07-09T04:39:00;104.00;;;15.55;;
2762;SDS011;1389;51.490;7.338;2022-07-09T04:41:27;101.60;;;16.50;;
2762;SDS011;1389;51.490;7.338;2022-07-09T04:43:54;104.57;;;17.90;;
2762;SDS011;1389;51.490;7.338;2022-07-09T04:46:20;100.70;;;15.95;;
2762;SDS011;1389;51.490;7.338;2022-07-09T04:48:52;104.97;;;16.58;;
2762;SDS011;1389;51.490;7.338;2022-07-09T04:51:19;102.53;;;16.70;;
2762;SDS011;1389;51.490;7.338;2022-07-09T04:53:45;103.53;;;16.20;;
2762;SDS011;1389;51.490;7.338;2022-07-09T04:56:11;101.03;;;16.00;;
2762;SDS011;1389;51.490;7.338;2022-07-09T04:58:37;102.27;;;17.17;;
2762;SDS011;1389;51.490;7.338;2022-07-09T05:01:03;103.88;;;17.40;;
2762;SDS011;1389;51.490;7.338;2022-07-09T05:03:29;102.30;;;16.98;;
2762;SDS011;1389;51.490;7.338;2022-07-09T05:05:56;99.75;;;16.55;;
2762;SDS011;1389;51.490;7.338;2022-07-09T05:08:22;107.15;;;17.48;;
2762;SDS011;1389;51.490;7.338;2022-07-09T05:10:48;101.40;;;16.90;;
2762;SDS011;1389;51.490;7.338;2022-07-09T05:13:14;99.63;;;15.90;;
2762;SDS011;1389;51.490;7.338;2022-07-09T05:15:40;102.43;;;17.05;;
2762;SDS011;1389;51.490;7.338;2022-07-09T05:18:06;105.22;;;16.83;;
2762;SDS011;1389;51.490;7.338;2022-07-09T05:20:32;101.85;;;16.90;;
2762;SDS011;1389;51.490;7.338;2022-07-09T05:22:58;102.10;;;17.60;;
2762;SDS011;1389;51.490;7.338;2022-07-09T05:25:24;100.85;;;17.67;;
2762;SDS011;1389;51.490;7.338;2022-07-09T05:27:50;104.05;;;17.75;;
2762;SDS011;1389;51.490;7.338;2022-07-09T05:30:16;102.32;;;17.10;;
2762;SDS011;1389;51.490;7.338;2022-07-09T05:32:43;102.10;;;17.95;;
2762;SDS011;1389;51.490;7.338;2022-07-09T05:35:09;104.40;;;18.52;;
2762;SDS011;1389;51.490;7.338;2022-07-09T05:37:42;102.57;;;18.30;;
2762;SDS011;1389;51.490;7.338;2022-07-09T05:40:09;102.28;;;18.00;;
2762;SDS011;1389;51.490;7.338;2022-07-09T05:42:36;104.30;;;17.90;;
2762;SDS011;1389;51.490;7.338;2022-07-09T05:45:02;108.70;;;19.15;;
2762;SDS011;1389;51.490;7.338;2022-07-09T05:47:29;102.35;;;18.17;;
2762;SDS011;1389;51.490;7.338;2022-07-09T05:49:55;102.20;;;17.90;;
2762;SDS011;1389;51.490;7.338;2022-07-09T05:52:21;103.53;;;17.95;;
2762;SDS011;1389;51.490;7.338;2022-07-09T05:54:47;102.70;;;17.80;;
2762;SDS011;1389;51.490;7.338;2022-07-09T05:57:13;101.00;;;17.40;;
2762;SDS011;1389;51.490;7.338;2022-07-09T05:59:39;102.00;;;18.00;;
2762;SDS011;1389;51.490;7.338;2022-07-09T06:02:05;99.85;;;16.80;;
2762;SDS011;1389;51.490;7.338;2022-07-09T06:04:32;99.72;;;17.17;;
2762;SDS011;1389;51.490;7.338;2022-07-09T06:06:58;103.65;;;17.33;;
2762;SDS011;1389;51.490;7.338;2022-07-09T06:09:24;99.80;;;17.20;;
2762;SDS011;1389;51.490;7.338;2022-07-09T06:11:50;101.97;;;17.38;;
2762;SDS011;1389;51.490;7.338;2022-07-09T06:14:16;102.25;;;17.40;;
2762;SDS011;1389;51.490;7.338;2022-07-09T06:16:44;99.20;;;16.80;;
2762;SDS011;1389;51.490;7.338;2022-07-09T06:19:12;99.78;;;17.20;;
2762;SDS011;1389;51.490;7.338;2022-07-09T06:21:40;98.57;;;16.20;;
2762;SDS011;1389;51.490;7.338;2022-07-09T06:24:06;97.90;;;15.20;;
2762;SDS011;1389;51.490;7.338;2022-07-09T06:26:32;99.40;;;16.30;;
2762;SDS011;1389;51.490;7.338;2022-07-09T06:29:01;97.93;;;15.50;;
2762;SDS011;1389;51.490;7.338;2022-07-09T06:31:28;99.68;;;16.70;;
2762;SDS011;1389;51.490;7.338;2022-07-09T06:33:54;98.40;;;16.25;;
2762;SDS011;1389;51.490;7.338;2022-07-09T06:36:20;99.10;;;16.25;;
2762;SDS011;1389;51.490;7.338;2022-07-09T06:38:46;98.20;;;16.30;;
2762;SDS011;1389;51.490;7.338;2022-07-09T06:41:50;97.25;;;15.23;;
2762;SDS011;1389;51.490;7.338;2022-07-09T06:44:16;99.30;;;16.40;;
2762;SDS011;1389;51.490;7.338;2022-07-09T06:46:42;98.82;;;16.40;;
2762;SDS011;1389;51.490;7.338;2022-07-09T06:49:08;98.72;;;16.30;;
2762;SDS011;1389;51.490;7.338;2022-07-09T06:51:34;99.20;;;16.90;;
2762;SDS011;1389;51.490;7.338;2022-07-09T06:54:00;98.68;;;16.50;;
2762;SDS011;1389;51.490;7.338;2022-07-09T06:56:26;98.45;;;16.40;;
2762;SDS011;1389;51.490;7.338;2022-07-09T06:58:52;100.47;;;16.70;;
2762;SDS011;1389;51.490;7.338;2022-07-09T07:01:18;97.40;;;15.85;;
2762;SDS011;1389;51.490;7.338;2022-07-09T07:03:44;101.00;;;16.67;;
2762;SDS011;1389;51.490;7.338;2022-07-09T07:06:10;97.20;;;15.77;;
2762;SDS011;1389;51.490;7.338;2022-07-09T07:08:36;98.60;;;16.30;;
2762;SDS011;1389;51.490;7.338;2022-07-09T07:11:03;99.18;;;16.08;;
2762;SDS011;1389;51.490;7.338;2022-07-09T07:13:29;97.70;;;16.00;;
2762;SDS011;1389;51.490;7.338;2022-07-09T07:15:55;97.90;;;15.30;;
2762;SDS011;1389;51.490;7.338;2022-07-09T07:18:21;98.32;;;15.95;;
2762;SDS011;1389;51.490;7.338;2022-07-09T07:20:47;98.68;;;16.10;;
2762;SDS011;1389;51.490;7.338;2022-07-09T07:23:14;98.30;;;16.10;;
2762;SDS011;1389;51.490;7.338;2022-07-09T07:25:41;98.28;;;16.13;;
2762;SDS011;1389;51.490;7.338;2022-07-09T07:28:07;100.90;;;16.25;;
2762;SDS011;1389;51.490;7.338;2022-07-09T07:30:33;99.00;;;16.10;;
2762;SDS011;1389;51.490;7.338;2022-07-09T07:33:00;97.88;;;16.20;;
2762;SDS011;1389;51.490;7.338;2022-07-09T07:35:26;97.93;;;15.85;;
2762;SDS011;1389;51.490;7.338;2022-07-09T07:37:52;98.00;;;15.77;;
2762;SDS011;1389;51.490;7.338;2022-07-09T07:40:18;99.40;;;16.27;;
2762;SDS011;1389;51.490;7.338;2022-07-09T07:42:44;98.30;;;15.70;;
2762;SDS011;1389;51.490;7.338;2022-07-09T07:45:10;98.40;;;15.32;;
2762;SDS011;1389;51.490;7.338;2022-07-09T07:47:36;97.72;;;16.13;;
2762;SDS011;1389;51.490;7.338;2022-07-09T07:50:03;102.40;;;16.17;;
2762;SDS011;1389;51.490;7.338;2022-07-09T07:52:29;100.03;;;15.93;;
2762;SDS011;1389;51.490;7.338;2022-07-09T07:54:55;99.10;;;15.70;;
2762;SDS011;1389;51.490;7.338;2022-07-09T07:57:22;97.40;;;15.20;;
2762;SDS011;1389;51.490;7.338;2022-07-09T07:59:48;97.40;;;14.70;;
2762;SDS011;1389;51.490;7.338;2022-07-09T08:02:14;97.55;;;15.10;;
2762;SDS011;1389;51.490;7.338;2022-07-09T08:04:40;99.50;;;15.80;;
2762;SDS011;1389;51.490;7.338;2022-07-09T08:07:06;98.22;;;15.52;;
2762;SDS011;1389;51.490;7.338;2022-07-09T08:09:32;98.22;;;15.30;;
2762;SDS011;1389;51.490;7.338;2022-07-09T08:12:02;96.95;;;14.80;;
2762;SDS011;1389;51.490;7.338;2022-07-09T08:14:28;98.15;;;15.00;;
2762;SDS011;1389;51.490;7.338;2022-07-09T08:16:54;101.30;;;15.40;;
2762;SDS011;1389;51.490;7.338;2022-07-09T08:19:21;97.88;;;15.00;;
2762;SDS011;1389;51.490;7.338;2022-07-09T08:21:47;97.47;;;14.70;;
2762;SDS011;1389;51.490;7.338;2022-07-09T08:24:13;97.07;;;14.25;;
2762;SDS011;1389;51.490;7.338;2022-07-09T08:26:39;99.05;;;14.70;;
2762;SDS011;1389;51.490;7.338;2022-07-09T08:29:05;96.95;;;14.40;;
2762;SDS011;1389;51.490;7.338;2022-07-09T08:31:31;96.15;;;13.88;;
2762;SDS011;1389;51.490;7.338;2022-07-09T08:33:57;98.90;;;14.80;;
2762;SDS011;1389;51.490;7.338;2022-07-09T08:36:23;96.30;;;14.10;;
2762;SDS011;1389;51.490;7.338;2022-07-09T08:38:49;96.50;;;14.40;;
2762;SDS011;1389;51.490;7.338;2022-07-09T08:41:15;96.88;;;14.40;;
2762;SDS011;1389;51.490;7.338;2022-07-09T08:43:48;96.50;;;14.10;;
2762;SDS011;1389;51.490;7.338;2022-07-09T08:46:16;96.80;;;14.00;;
2762;SDS011;1389;51.490;7.338;2022-07-09T08:48:43;96.55;;;13.80;;
2762;SDS011;1389;51.490;7.338;2022-07-09T08:51:09;97.22;;;14.02;;
2762;SDS011;1389;51.490;7.338;2022-07-09T08:53:39;98.97;;;14.40;;
2762;SDS011;1389;51.490;7.338;2022-07-09T08:56:07;97.18;;;14.38;;
2762;SDS011;1389;51.490;7.338;2022-07-09T08:58:34;98.30;;;14.40;;
2762;SDS011;1389;51.490;7.338;2022-07-09T09:01:00;98.10;;;15.02;;
2762;SDS011;1389;51.490;7.338;2022-07-09T09:03:26;97.40;;;13.98;;
2762;SDS011;1389;51.490;7.338;2022-07-09T09:06:00;98.25;;;14.02;;
2762;SDS011;1389;51.490;7.338;2022-07-09T09:08:36;98.28;;;14.25;;
2762;SDS011;1389;51.490;7.338;2022-07-09T09:11:04;100.35;;;14.10;;
2762;SDS011;1389;51.490;7.338;2022-07-09T09:13:36;95.82;;;13.73;;
2762;SDS011;1389;51.490;7.338;2022-07-09T09:16:07;97.57;;;13.25;;
2762;SDS011;1389;51.490;7.338;2022-07-09T09:18:45;94.93;;;13.30;;
2762;SDS011;1389;51.490;7.338;2022-07-09T09:21:13;95.20;;;13.38;;
2762;SDS011;1389;51.490;7.338;2022-07-09T09:23:53;94.28;;;12.85;;
2762;SDS011;1389;51.490;7.338;2022-07-09T09:26:21;95.15;;;12.70;;
2762;SDS011;1389;51.490;7.338;2022-07-09T09:31:26;95.13;;;12.30;;
2762;SDS011;1389;51.490;7.338;2022-07-09T09:36:35;93.80;;;12.23;;
2762;SDS011;1389;51.490;7.338;2022-07-09T09:41:48;93.78;;;12.10;;
2762;SDS011;1389;51.490;7.338;2022-07-09T09:44:19;93.90;;;12.32;;
2762;SDS011;1389;51.490;7.338;2022-07-09T09:46:46;94.10;;;12.43;;
2762;SDS011;1389;51.490;7.338;2022-07-09T09:49:14;93.80;;;12.60;;
2762;SDS011;1389;51.490;7.338;2022-07-09T09:54:10;94.40;;;12.65;;
2762;SDS011;1389;51.490;7.338;2022-07-09T09:56:36;95.30;;;12.30;;
2762;SDS011;1389;51.490;7.338;2022-07-09T09:59:04;99.15;;;12.93;;
2762;SDS011;1389;51.490;7.338;2022-07-09T10:01:31;112.35;;;16.00;;
2762;SDS011;1389;51.490;7.338;2022-07-09T10:03:58;98.05;;;13.38;;
2762;SDS011;1389;51.490;7.338;2022-07-09T10:06:24;96.23;;;12.67;;
2762;SDS011;1389;51.490;7.338;2022-07-09T10:08:52;94.40;;;12.10;;
2762;SDS011;1389;51.490;7.338;2022-07-09T10:11:19;96.13;;;12.60;;
2762;SDS011;1389;51.490;7.338;2022-07-09T10:13:50;95.22;;;12.50;;
2762;SDS011;1389;51.490;7.338;2022-07-09T10:16:17;95.93;;;12.27;;
2762;SDS011;1389;51.490;7.338;2022-07-09T10:18:50;94.47;;;12.27;;
2762;SDS011;1389;51.490;7.338;2022-07-09T10:24:01;94.13;;;11.93;;
2762;SDS011;1389;51.490;7.338;2022-07-09T10:26:37;94.40;;;11.80;;
2762;SDS011;1389;51.490;7.338;2022-07-09T10:29:27;93.40;;;11.60;;
2762;SDS011;1389;51.490;7.338;2022-07-09T10:31:54;94.93;;;12.00;;
2762;SDS011;1389;51.490;7.338;2022-07-09T10:37:02;95.43;;;12.10;;
2762;SDS011;1389;51.490;7.338;2022-07-09T10:39:30;95.50;;;12.27;;
2762;SDS011;1389;51.490;7.338;2022-07-09T10:44:46;93.90;;;11.60;;
2762;SDS011;1389;51.490;7.338;2022-07-09T10:47:15;94.93;;;11.80;;
2762;SDS011;1389;51.490;7.338;2022-07-09T10:49:41;96.47;;;11.77;;
2762;SDS011;1389;51.490;7.338;2022-07-09T10:52:07;94.93;;;11.35;;
2762;SDS011;1389;51.490;7.338;2022-07-09T10:54:34;95.37;;;11.60;;
2762;SDS011;1389;51.490;7.338;2022-07-09T10:57:10;94.55;;;11.70;;
2762;SDS011;1389;51.490;7.338;2022-07-09T10:59:36;95.30;;;11.90;;
2762;SDS011;1389;51.490;7.338;2022-07-09T11:02:02;97.00;;;11.93;;
2762;SDS011;1389;51.490;7.338;2022-07-09T11:04:29;96.32;;;12.10;;
2762;SDS011;1389;51.490;7.338;2022-07-09T11:06:56;96.93;;;12.15;;
2762;SDS011;1389;51.490;7.338;2022-07-09T11:09:25;98.00;;;12.57;;
2762;SDS011;1389;51.490;7.338;2022-07-09T11:11:55;95.90;;;12.30;;
2762;SDS011;1389;51.490;7.338;2022-07-09T11:14:22;95.78;;;12.55;;
2762;SDS011;1389;51.490;7.338;2022-07-09T11:16:57;95.70;;;12.50;;
2762;SDS011;1389;51.490;7.338;2022-07-09T11:19:26;97.13;;;12.70;;
2762;SDS011;1389;51.490;7.338;2022-07-09T11:22:02;95.60;;;11.95;;
2762;SDS011;1389;51.490;7.338;2022-07-09T11:24:28;97.03;;;12.60;;
2762;SDS011;1389;51.490;7.338;2022-07-09T11:26:55;95.63;;;11.95;;
2762;SDS011;1389;51.490;7.338;2022-07-09T11:29:21;96.50;;;12.10;;
2762;SDS011;1389;51.490;7.338;2022-07-09T11:31:48;95.40;;;11.90;;
2762;SDS011;1389;51.490;7.338;2022-07-09T11:34:18;97.03;;;12.32;;
2762;SDS011;1389;51.490;7.338;2022-07-09T11:36:46;95.10;;;12.20;;
2762;SDS011;1389;51.490;7.338;2022-07-09T11:39:25;96.10;;;12.70;;
2762;SDS011;1389;51.490;7.338;2022-07-09T11:41:56;96.47;;;12.35;;
2762;SDS011;1389;51.490;7.338;2022-07-09T11:44:25;97.70;;;13.27;;
2762;SDS011;1389;51.490;7.338;2022-07-09T11:49:38;96.47;;;12.70;;
2762;SDS011;1389;51.490;7.338;2022-07-09T11:52:16;98.70;;;12.43;;
2762;SDS011;1389;51.490;7.338;2022-07-09T11:54:57;96.60;;;12.10;;
2762;SDS011;1389;51.490;7.338;2022-07-09T11:57:23;95.10;;;12.10;;
2762;SDS011;1389;51.490;7.338;2022-07-09T11:59:49;94.22;;;11.57;;
2762;SDS011;1389;51.490;7.338;2022-07-09T12:02:30;93.82;;;11.70;;
2762;SDS011;1389;51.490;7.338;2022-07-09T12:04:58;93.70;;;11.65;;
2762;SDS011;1389;51.490;7.338;2022-07-09T12:07:25;94.28;;;11.55;;
2762;SDS011;1389;51.490;7.338;2022-07-09T12:12:24;94.53;;;12.00;;
2762;SDS011;1389;51.490;7.338;2022-07-09T12:14:51;93.75;;;11.90;;
2762;SDS011;1389;51.490;7.338;2022-07-09T12:17:22;96.95;;;11.63;;
2762;SDS011;1389;51.490;7.338;2022-07-09T12:19:50;95.07;;;11.82;;
2762;SDS011;1389;51.490;7.338;2022-07-09T12:22:17;95.35;;;11.70;;
2762;SDS011;1389;51.490;7.338;2022-07-09T12:24:43;97.97;;;11.20;;
2762;SDS011;1389;51.490;7.338;2022-07-09T12:27:10;94.00;;;11.20;;
2762;SDS011;1389;51.490;7.338;2022-07-09T12:29:36;95.65;;;11.10;;
2762;SDS011;1389;51.490;7.338;2022-07-09T12:32:02;94.37;;;11.70;;
2762;SDS011;1389;51.490;7.338;2022-07-09T12:34:29;93.75;;;11.40;;
2762;SDS011;1389;51.490;7.338;2022-07-09T12:36:55;94.70;;;11.40;;
2762;SDS011;1389;51.490;7.338;2022-07-09T12:39:21;92.93;;;11.43;;
2762;SDS011;1389;51.490;7.338;2022-07-09T12:41:47;94.03;;;11.70;;
2762;SDS011;1389;51.490;7.338;2022-07-09T12:44:13;93.10;;;11.50;;
2762;SDS011;1389;51.490;7.338;2022-07-09T12:46:39;95.85;;;11.80;;
2762;SDS011;1389;51.490;7.338;2022-07-09T12:49:05;93.15;;;11.45;;
2762;SDS011;1389;51.490;7.338;2022-07-09T12:51:31;95.15;;;11.20;;
2762;SDS011;1389;51.490;7.338;2022-07-09T12:53:58;97.80;;;14.33;;
2762;SDS011;1389;51.490;7.338;2022-07-09T12:56:24;101.47;;;19.10;;
2762;SDS011;1389;51.490;7.338;2022-07-09T12:58:50;100.30;;;17.80;;
2762;SDS011;1389;51.490;7.338;2022-07-09T13:01:16;99.03;;;17.23;;
2762;SDS011;1389;51.490;7.338;2022-07-09T13:03:42;102.07;;;18.10;;
2762;SDS011;1389;51.490;7.338;2022-07-09T13:06:08;101.53;;;18.58;;
2762;SDS011;1389;51.490;7.338;2022-07-09T13:08:54;103.00;;;18.77;;
2762;SDS011;1389;51.490;7.338;2022-07-09T13:11:21;104.50;;;19.27;;
2762;SDS011;1389;51.490;7.338;2022-07-09T13:13:47;103.68;;;19.33;;
2762;SDS011;1389;51.490;7.338;2022-07-09T13:16:13;105.18;;;19.52;;
2762;SDS011;1389;51.490;7.338;2022-07-09T13:18:39;107.13;;;20.30;;
2762;SDS011;1389;51.490;7.338;2022-07-09T13:21:05;108.65;;;21.20;;
2762;SDS011;1389;51.490;7.338;2022-07-09T13:23:31;107.63;;;21.92;;
2762;SDS011;1389;51.490;7.338;2022-07-09T13:25:58;106.93;;;22.20;;
2762;SDS011;1389;51.490;7.338;2022-07-09T13:28:24;106.70;;;22.30;;
2762;SDS011;1389;51.490;7.338;2022-07-09T13:30:50;107.22;;;22.55;;
2762;SDS011;1389;51.490;7.338;2022-07-09T13:33:17;115.25;;;24.58;;
2762;SDS011;1389;51.490;7.338;2022-07-09T13:35:43;117.55;;;27.77;;
2762;SDS011;1389;51.490;7.338;2022-07-09T13:38:09;111.72;;;25.65;;
2762;SDS011;1389;51.490;7.338;2022-07-09T13:40:35;112.00;;;26.80;;
2762;SDS011;1389;51.490;7.338;2022-07-09T13:43:01;113.18;;;27.42;;
2762;SDS011;1389;51.490;7.338;2022-07-09T13:45:28;110.15;;;26.60;;
2762;SDS011;1389;51.490;7.338;2022-07-09T13:47:54;115.17;;;29.70;;
2762;SDS011;1389;51.490;7.338;2022-07-09T13:50:21;113.22;;;28.95;;
2762;SDS011;1389;51.490;7.338;2022-07-09T13:52:47;113.80;;;29.90;;
2762;SDS011;1389;51.490;7.338;2022-07-09T13:55:14;114.28;;;30.00;;
2762;SDS011;1389;51.490;7.338;2022-07-09T13:57:41;114.43;;;28.85;;
2762;SDS011;1389;51.490;7.338;2022-07-09T14:00:07;112.20;;;28.30;;
2762;SDS011;1389;51.490;7.338;2022-07-09T14:02:34;113.13;;;28.60;;
2762;SDS011;1389;51.490;7.338;2022-07-09T14:05:01;113.90;;;30.60;;
2762;SDS011;1389;51.490;7.338;2022-07-09T14:07:28;113.93;;;30.08;;
2762;SDS011;1389;51.490;7.338;2022-07-09T14:09:54;116.53;;;31.08;;
2762;SDS011;1389;51.490;7.338;2022-07-09T14:12:21;111.47;;;27.35;;
2762;SDS011;1389;51.490;7.338;2022-07-09T14:14:49;114.17;;;27.43;;
2762;SDS011;1389;51.490;7.338;2022-07-09T14:17:16;111.38;;;27.10;;
2762;SDS011;1389;51.490;7.338;2022-07-09T14:19:42;111.17;;;26.60;;
2762;SDS011;1389;51.490;7.338;2022-07-09T14:22:09;110.18;;;24.80;;
2762;SDS011;1389;51.490;7.338;2022-07-09T14:24:35;108.80;;;24.45;;
2762;SDS011;1389;51.490;7.338;2022-07-09T14:27:01;107.40;;;23.60;;
2762;SDS011;1389;51.490;7.338;2022-07-09T14:29:28;106.18;;;19.33;;
2762;SDS011;1389;51.490;7.338;2022-07-09T14:31:54;103.97;;;19.60;;
2762;SDS011;1389;51.490;7.338;2022-07-09T14:34:21;102.78;;;16.73;;
2762;SDS011;1389;51.490;7.338;2022-07-09T14:36:50;99.80;;;16.10;;
2762;SDS011;1389;51.490;7.338;2022-07-09T14:39:20;99.50;;;15.80;;
2762;SDS011;1389;51.490;7.338;2022-07-09T14:41:49;100.60;;;15.90;;
2762;SDS011;1389;51.490;7.338;2022-07-09T14:44:15;98.70;;;14.30;;
2762;SDS011;1389;51.490;7.338;2022-07-09T14:46:41;97.55;;;13.40;;
2762;SDS011;1389;51.490;7.338;2022-07-09T14:49:07;96.70;;;13.90;;
2762;SDS011;1389;51.490;7.338;2022-07-09T14:51:37;95.38;;;13.10;;
2762;SDS011;1389;51.490;7.338;2022-07-09T14:54:04;95.60;;;13.20;;
2762;SDS011;1389;51.490;7.338;2022-07-09T14:56:31;95.10;;;12.57;;
2762;SDS011;1389;51.490;7.338;2022-07-09T14:58:57;95.55;;;13.23;;
2762;SDS011;1389;51.490;7.338;2022-07-09T15:01:24;95.50;;;13.43;;
2762;SDS011;1389;51.490;7.338;2022-07-09T15:03:50;96.43;;;13.80;;
2762;SDS011;1389;51.490;7.338;2022-07-09T15:06:16;93.50;;;11.43;;